createdAt,value
2019-02-16T00:00:48.943Z,1.40
2019-02-16T00:03:17.423Z,1.40
2019-02-16T00:05:45.763Z,1.40
2019-02-16T00:08:13.976Z,1.40
2019-02-16T00:10:42.453Z,1.40
2019-02-16T00:13:10.937Z,1.40
2019-02-16T00:15:39.210Z,1.30
2019-02-16T00:18:08.918Z,1.30
2019-02-16T00:20:36.990Z,1.30
2019-02-16T00:23:05.321Z,1.30
2019-02-16T00:25:33.543Z,1.30
2019-02-16T00:28:01.817Z,1.30
2019-02-16T00:30:30.093Z,1.30
2019-02-16T00:32:58.370Z,1.30
2019-02-16T00:35:26.649Z,1.30
2019-02-16T00:37:54.715Z,1.20
2019-02-16T00:40:23.195Z,1.20
2019-02-16T00:42:51.676Z,1.20
2019-02-16T00:45:20.157Z,1.20
2019-02-16T00:47:51.917Z,1.10
2019-02-16T00:50:20.189Z,1.10
2019-02-16T00:52:49.695Z,1.10
2019-02-16T00:55:18.175Z,1.10
2019-02-16T00:57:46.656Z,1.10
2019-02-16T01:00:14.733Z,1.10
2019-02-16T01:02:42.799Z,1.10
2019-02-16T01:05:17.220Z,1.10
2019-02-16T01:08:05.614Z,1.10
2019-02-16T01:10:34.044Z,1.10
2019-02-16T01:13:02.524Z,1.10
2019-02-16T01:15:31.005Z,1.00
2019-02-16T01:17:59.486Z,1.00
2019-02-16T01:20:27.969Z,1.00
2019-02-16T01:22:56.245Z,1.00
2019-02-16T01:25:24.516Z,0.90
2019-02-16T01:27:54.021Z,0.80
2019-02-16T01:30:23.526Z,0.90
2019-02-16T01:32:51.597Z,0.90
2019-02-16T01:35:19.874Z,0.90
2019-02-16T01:37:48.149Z,0.80
2019-02-16T01:40:16.424Z,0.90
2019-02-16T01:42:44.546Z,0.90
2019-02-16T01:45:13.185Z,0.80
2019-02-16T01:47:40.841Z,0.80
2019-02-16T01:50:09.325Z,0.70
2019-02-16T01:52:37.805Z,0.60
2019-02-16T01:55:08.694Z,0.60
2019-02-16T01:57:36.196Z,0.60
2019-02-16T02:00:06.552Z,0.60
2019-02-16T02:02:34.182Z,0.60
2019-02-16T02:05:02.051Z,0.50
2019-02-16T02:07:31.143Z,0.60
2019-02-16T02:09:59.627Z,0.60
2019-02-16T02:12:29.336Z,0.60
2019-02-16T02:14:58.840Z,0.60
2019-02-16T02:17:27.265Z,0.60
2019-02-16T02:19:54.980Z,0.50
2019-02-16T02:22:23.256Z,0.40
2019-02-16T02:24:51.735Z,0.40
2019-02-16T02:27:21.240Z,0.40
2019-02-16T02:29:49.724Z,0.40
2019-02-16T02:32:17.791Z,0.40
2019-02-16T02:34:45.862Z,0.40
2019-02-16T02:37:14.138Z,0.40
2019-02-16T02:39:42.213Z,0.30
2019-02-16T02:42:10.490Z,0.30
2019-02-16T02:44:38.390Z,0.30
2019-02-16T02:47:06.470Z,0.20
2019-02-16T02:49:34.697Z,0.20
2019-02-16T02:52:02.977Z,0.20
2019-02-16T02:54:31.254Z,0.20
2019-02-16T02:57:00.758Z,0.10
2019-02-16T02:59:29.028Z,0.10
2019-02-16T03:01:57.304Z,0.00
2019-02-16T03:04:25.607Z,0.00
2019-02-16T03:06:55.098Z,0.00
2019-02-16T03:09:23.155Z,0.00
2019-02-16T03:11:51.430Z,-0.10
2019-02-16T03:14:19.706Z,-0.10
2019-02-16T03:16:47.984Z,-0.10
2019-02-16T03:19:16.261Z,-0.10
2019-02-16T03:21:44.174Z,-0.10
2019-02-16T03:24:13.628Z,-0.10
2019-02-16T03:26:45.591Z,-0.10
2019-02-16T03:29:25.950Z,-0.10
2019-02-16T03:32:16.366Z,-0.10
2019-02-16T03:34:50.971Z,-0.10
2019-02-16T03:37:31.618Z,-0.20
2019-02-16T03:39:59.195Z,-0.30
2019-02-16T03:42:28.706Z,-0.20
2019-02-16T03:44:57.180Z,-0.20
2019-02-16T03:47:25.250Z,-0.20
2019-02-16T03:49:53.524Z,-0.20
2019-02-16T03:52:23.031Z,-0.20
2019-02-16T03:54:51.305Z,-0.20
2019-02-16T03:57:19.584Z,-0.20
2019-02-16T03:59:47.856Z,-0.20
2019-02-16T04:02:16.132Z,-0.20
2019-02-16T04:04:44.412Z,-0.10
2019-02-16T04:07:12.685Z,-0.10
2019-02-16T04:09:40.960Z,-0.10
2019-02-16T04:12:08.825Z,-0.10
2019-02-16T04:14:37.305Z,-0.20
2019-02-16T04:17:05.786Z,-0.20
2019-02-16T04:19:33.859Z,-0.10
2019-02-16T04:22:03.366Z,-0.20
2019-02-16T04:24:31.639Z,-0.20
2019-02-16T04:26:59.708Z,-0.20
2019-02-16T04:29:28.194Z,-0.20
2019-02-16T04:31:57.694Z,-0.20
2019-02-16T04:34:26.174Z,-0.20
2019-02-16T04:37:07.699Z,-0.20
2019-02-16T04:39:35.218Z,-0.20
2019-02-16T04:42:03.494Z,-0.10
2019-02-16T04:44:31.976Z,0.00
2019-02-16T04:47:19.887Z,-0.10
2019-02-16T04:50:01.811Z,0.30
2019-02-16T04:52:34.727Z,0.00
2019-02-16T04:54:59.279Z,0.00
2019-02-16T04:57:28.988Z,-0.10
2019-02-16T04:59:58.492Z,-0.10
2019-02-16T05:02:39.748Z,0.00
2019-02-16T05:05:07.331Z,0.00
2019-02-16T05:07:35.813Z,0.00
2019-02-16T05:10:05.726Z,0.00
2019-02-16T05:12:35.230Z,-0.30
2019-02-16T05:15:16.515Z,0.00
2019-02-16T05:17:44.274Z,-0.10
2019-02-16T05:20:12.773Z,0.00
2019-02-16T05:22:44.581Z,0.00
2019-02-16T05:25:10.128Z,-0.10
2019-02-16T05:27:51.101Z,-0.10
2019-02-16T05:30:18.763Z,-0.10
2019-02-16T05:32:47.242Z,-0.10
2019-02-16T05:35:15.722Z,-0.20
2019-02-16T05:37:48.535Z,-0.20
2019-02-16T05:40:16.984Z,0.60
2019-02-16T05:42:45.259Z,-0.20
2019-02-16T05:45:13.538Z,-0.20
2019-02-16T05:47:41.811Z,-0.30
2019-02-16T05:50:10.087Z,-0.30
2019-02-16T05:52:37.953Z,-0.30
2019-02-16T05:55:06.638Z,-0.30
2019-02-16T05:57:34.300Z,-0.30
2019-02-16T06:00:06.013Z,-0.30
2019-02-16T06:02:33.717Z,-0.20
2019-02-16T06:05:02.200Z,-0.20
2019-02-16T06:07:30.272Z,-0.20
2019-02-16T06:09:58.136Z,-0.20
2019-02-16T06:12:26.616Z,-0.30
2019-02-16T06:15:04.107Z,-0.30
2019-02-16T06:17:31.769Z,0.20
2019-02-16T06:20:00.352Z,-0.30
2019-02-16T06:22:28.525Z,-0.30
2019-02-16T06:24:57.006Z,-0.30
2019-02-16T06:27:25.489Z,-0.30
2019-02-16T06:29:53.384Z,-0.40
2019-02-16T06:32:21.411Z,-0.40
2019-02-16T06:34:51.353Z,-0.40
2019-02-16T06:40:11.647Z,-0.30
2019-02-16T06:42:39.921Z,-0.30
2019-02-16T06:45:08.197Z,-0.30
2019-02-16T06:47:36.267Z,-0.20
2019-02-16T06:50:05.158Z,-0.20
2019-02-16T06:52:33.640Z,-0.10
2019-02-16T06:55:02.123Z,-0.10
2019-02-16T06:57:31.213Z,0.00
2019-02-16T06:59:59.284Z,0.10
2019-02-16T07:02:28.994Z,0.20
2019-02-16T07:04:56.862Z,0.20
2019-02-16T07:07:44.726Z,0.40
2019-02-16T07:10:12.867Z,1.00
2019-02-16T07:12:41.401Z,0.80
2019-02-16T07:15:09.009Z,0.90
2019-02-16T07:17:48.139Z,0.90
2019-02-16T07:20:18.467Z,0.90
2019-02-16T07:22:46.742Z,0.90
2019-02-16T07:25:14.709Z,1.10
2019-02-16T07:27:43.086Z,1.20
2019-02-16T07:30:11.569Z,1.20
2019-02-16T07:32:40.052Z,1.20
2019-02-16T07:35:08.530Z,1.20
2019-02-16T07:37:36.399Z,1.10
2019-02-16T07:40:06.256Z,1.00
2019-02-16T07:42:57.316Z,1.00
2019-02-16T07:45:34.807Z,0.90
2019-02-16T07:48:10.456Z,1.00
2019-02-16T07:50:46.718Z,1.00
2019-02-16T07:53:16.428Z,1.10
2019-02-16T07:55:47.165Z,1.10
2019-02-16T07:58:17.280Z,1.30
2019-02-16T08:00:46.989Z,1.50
2019-02-16T08:03:17.283Z,1.70
2019-02-16T08:05:49.275Z,1.90
2019-02-16T08:08:20.828Z,2.10
2019-02-16T08:10:50.947Z,2.10
2019-02-16T08:13:39.292Z,2.30
2019-02-16T08:16:25.798Z,2.40
2019-02-16T08:19:11.777Z,2.40
2019-02-16T08:22:00.647Z,2.70
2019-02-16T08:24:36.500Z,3.00
2019-02-16T08:27:06.445Z,2.80
2019-02-16T08:29:52.712Z,2.80
2019-02-16T08:32:32.256Z,3.30
2019-02-16T08:35:21.211Z,3.80
2019-02-16T08:37:51.136Z,4.50
2019-02-16T08:40:21.862Z,4.10
2019-02-16T08:42:55.049Z,4.30
2019-02-16T08:45:41.969Z,4.80
2019-02-16T08:48:12.401Z,6.20
2019-02-16T08:50:52.031Z,7.10
2019-02-16T08:53:29.113Z,6.70
2019-02-16T08:55:59.641Z,7.10
2019-02-16T08:58:29.351Z,7.30
2019-02-16T09:01:10.703Z,7.80
2019-02-16T09:03:43.310Z,9.00
2019-02-16T09:06:31.248Z,7.30
2019-02-16T09:09:01.379Z,7.30
2019-02-16T09:11:47.664Z,7.10
2019-02-16T09:14:27.002Z,7.30
2019-02-16T09:17:13.305Z,7.10
2019-02-16T09:19:43.007Z,7.20
2019-02-16T09:22:13.658Z,7.00
2019-02-16T09:24:46.726Z,6.50
2019-02-16T09:27:32.411Z,6.10
2019-02-16T09:30:05.197Z,5.90
2019-02-16T09:32:35.260Z,6.00
2019-02-16T09:35:10.142Z,5.80
2019-02-16T09:37:43.946Z,6.30
2019-02-16T09:40:18.776Z,7.10
2019-02-16T09:42:49.097Z,6.70
2019-02-16T09:45:36.215Z,6.90
2019-02-16T09:48:21.079Z,7.50
2019-02-16T09:50:56.932Z,8.40
2019-02-16T09:53:39.135Z,7.90
2019-02-16T09:56:18.265Z,8.10
2019-02-16T09:58:48.592Z,8.30
2019-02-16T10:01:24.444Z,8.60
2019-02-16T10:03:57.225Z,8.20
2019-02-16T10:06:45.776Z,8.10
2019-02-16T10:09:16.098Z,8.70
2019-02-16T10:11:46.832Z,9.30
2019-02-16T10:14:22.480Z,10.20
2019-02-16T10:16:58.338Z,10.70
2019-02-16T10:19:31.114Z,10.90
2019-02-16T10:22:18.231Z,10.40
2019-02-16T10:24:51.013Z,10.00
2019-02-16T10:27:36.697Z,9.80
2019-02-16T10:30:26.887Z,9.60
2019-02-16T10:33:08.316Z,10.40
2019-02-16T10:35:43.713Z,9.50
2019-02-16T10:38:16.910Z,10.80
2019-02-16T10:40:55.829Z,8.90
2019-02-16T10:43:30.249Z,9.00
2019-02-16T10:46:12.246Z,9.30
2019-02-16T10:48:54.244Z,9.60
2019-02-16T10:51:33.579Z,10.00
2019-02-16T10:54:26.979Z,10.00
2019-02-16T10:56:55.526Z,9.70
2019-02-16T10:59:24.932Z,9.60
2019-02-16T11:01:55.354Z,10.00
2019-02-16T11:04:38.194Z,11.10
2019-02-16T11:09:55.406Z,10.70
2019-02-16T11:12:25.526Z,10.60
2019-02-16T11:14:55.850Z,10.90
2019-02-16T11:17:34.980Z,11.10
2019-02-16T11:20:13.496Z,11.10
2019-02-16T11:23:01.228Z,11.60
2019-02-16T11:25:43.841Z,11.40
2019-02-16T11:28:14.035Z,11.10
2019-02-16T11:30:47.101Z,11.70
2019-02-16T11:33:19.318Z,11.90
2019-02-16T11:35:57.223Z,12.70
2019-02-16T11:38:45.360Z,13.60
2019-02-16T11:41:18.991Z,13.60
2019-02-16T11:44:02.800Z,14.10
2019-02-16T11:46:33.123Z,14.10
2019-02-16T11:49:14.711Z,14.70
2019-02-16T11:51:54.323Z,14.40
2019-02-16T11:54:30.109Z,14.90
2019-02-16T11:57:05.960Z,14.90
2019-02-16T11:59:38.945Z,14.80
2019-02-16T12:02:11.072Z,14.80
2019-02-16T12:04:41.028Z,15.60
2019-02-16T12:07:27.938Z,16.20
2019-02-16T12:10:01.335Z,15.70
2019-02-16T12:12:36.778Z,14.90
2019-02-16T12:15:08.126Z,15.70
2019-02-16T12:17:41.316Z,16.40
2019-02-16T12:20:20.038Z,16.70
2019-02-16T12:23:02.239Z,16.60
2019-02-16T12:25:38.298Z,16.30
2019-02-16T12:28:17.224Z,17.20
2019-02-16T12:30:53.281Z,16.70
2019-02-16T12:33:26.470Z,16.70
2019-02-16T12:36:07.444Z,15.90
2019-02-16T12:38:52.321Z,15.60
2019-02-16T12:41:38.813Z,16.20
2019-02-16T12:44:27.978Z,17.00
2019-02-16T12:47:00.566Z,16.70
2019-02-16T12:49:35.794Z,15.50
2019-02-16T12:52:22.501Z,15.90
2019-02-16T12:55:04.294Z,16.50
2019-02-16T12:57:39.948Z,16.70
2019-02-16T13:00:18.874Z,17.40
2019-02-16T13:02:57.590Z,15.70
2019-02-16T13:05:27.503Z,15.60
2019-02-16T13:07:57.432Z,15.00
2019-02-16T13:10:32.419Z,15.10
2019-02-16T13:13:01.480Z,16.10
2019-02-16T13:15:36.416Z,15.70
2019-02-16T13:18:05.472Z,15.60
2019-02-16T13:20:36.392Z,14.90
2019-02-16T13:23:05.461Z,14.10
2019-02-16T13:25:34.583Z,13.00
2019-02-16T13:28:19.940Z,12.60
2019-02-16T13:30:49.065Z,12.30
2019-02-16T13:33:30.107Z,12.00
2019-02-16T13:36:02.152Z,11.70
2019-02-16T13:38:48.052Z,11.70
2019-02-16T13:41:17.205Z,11.60
2019-02-16T13:43:46.349Z,11.60
2019-02-16T13:46:24.523Z,11.60
2019-02-16T13:48:56.382Z,11.40
2019-02-16T13:51:28.009Z,11.40
2019-02-16T13:53:56.989Z,11.50
2019-02-16T13:56:26.004Z,11.50
2019-02-16T13:59:01.043Z,11.60
2019-02-16T14:01:30.004Z,11.40
2019-02-16T14:04:02.564Z,11.50
2019-02-16T14:06:31.614Z,11.70
2019-02-16T14:09:00.689Z,11.90
2019-02-16T14:11:38.532Z,11.90
2019-02-16T14:14:10.282Z,11.80
2019-02-16T14:16:54.316Z,11.80
2019-02-16T14:19:21.460Z,11.70
2019-02-16T14:21:48.708Z,11.90
2019-02-16T14:24:17.814Z,12.20
2019-02-16T14:26:44.963Z,12.00
2019-02-16T14:29:12.206Z,11.80
2019-02-16T14:31:39.394Z,11.50
2019-02-16T14:34:06.694Z,11.30
2019-02-16T14:36:33.950Z,11.10
2019-02-16T14:39:05.968Z,11.10
2019-02-16T14:41:33.209Z,11.10
2019-02-16T14:44:00.593Z,11.10
2019-02-16T14:46:28.200Z,11.10
2019-02-16T14:48:55.457Z,10.90
2019-02-16T14:51:22.888Z,10.70
2019-02-16T14:53:50.299Z,10.70
2019-02-16T14:56:17.649Z,10.60
2019-02-16T14:58:45.455Z,10.50
2019-02-16T15:01:13.583Z,10.40
2019-02-16T15:03:40.808Z,10.20
2019-02-16T15:06:08.001Z,10.10
2019-02-16T15:08:35.379Z,10.10
2019-02-16T15:11:03.056Z,10.00
2019-02-16T15:13:31.344Z,9.90
2019-02-16T15:15:58.689Z,9.80
2019-02-16T15:18:26.129Z,9.80
2019-02-16T15:20:54.313Z,9.70
2019-02-16T15:23:21.572Z,9.50
2019-02-16T15:25:48.795Z,9.40
2019-02-16T15:28:16.132Z,9.20
2019-02-16T15:30:43.464Z,9.20
2019-02-16T15:33:10.781Z,9.20
2019-02-16T15:35:38.073Z,9.10
2019-02-16T15:38:05.379Z,9.00
2019-02-16T15:40:32.578Z,8.90
2019-02-16T15:42:59.747Z,8.80
2019-02-16T15:45:26.965Z,8.70
2019-02-16T15:47:54.264Z,8.60
2019-02-16T15:50:21.517Z,8.60
2019-02-16T15:52:48.694Z,8.50
2019-02-16T15:55:15.999Z,8.40
2019-02-16T15:57:43.343Z,8.30
2019-02-16T16:00:16.111Z,8.20
2019-02-16T16:02:43.386Z,8.10
2019-02-16T16:05:10.552Z,8.00
2019-02-16T16:07:38.673Z,7.90
2019-02-16T16:10:11.074Z,7.80
2019-02-16T16:12:41.250Z,7.60
2019-02-16T16:15:19.175Z,7.50
2019-02-16T16:17:57.052Z,7.40
2019-02-16T16:20:26.547Z,7.30
2019-02-16T16:22:58.808Z,7.20
2019-02-16T16:25:33.543Z,7.10
2019-02-16T16:28:15.781Z,6.90
2019-02-16T16:30:44.783Z,6.90
2019-02-16T16:33:19.997Z,6.90
2019-02-16T16:35:55.181Z,6.90
2019-02-16T16:38:30.041Z,6.70
2019-02-16T16:41:01.897Z,6.70
2019-02-16T16:43:31.432Z,6.70
2019-02-16T16:46:16.985Z,6.60
2019-02-16T16:49:00.978Z,6.60
2019-02-16T16:51:30.113Z,6.60
2019-02-16T16:54:05.404Z,6.50
2019-02-16T16:56:34.764Z,6.40
2019-02-16T16:59:13.201Z,6.50
2019-02-16T17:01:51.193Z,6.40
2019-02-16T17:04:23.558Z,6.50
2019-02-16T17:07:10.272Z,6.40
2019-02-16T17:09:40.383Z,6.40
2019-02-16T17:12:22.184Z,6.40
2019-02-16T17:15:00.004Z,6.30
2019-02-16T17:17:31.843Z,6.30
2019-02-16T17:20:00.936Z,6.20
2019-02-16T17:22:44.689Z,6.20
2019-02-16T17:25:19.593Z,6.30
2019-02-16T17:27:51.532Z,6.30
2019-02-16T17:30:29.471Z,6.30
2019-02-16T17:33:15.179Z,6.30
2019-02-16T17:35:47.167Z,6.20
2019-02-16T17:38:21.883Z,6.20
2019-02-16T17:41:06.122Z,6.10
2019-02-16T17:43:37.979Z,6.10
2019-02-16T17:46:23.781Z,6.10
2019-02-16T17:49:10.848Z,6.20
2019-02-16T17:51:46.108Z,6.20
2019-02-16T17:54:18.019Z,6.20
2019-02-16T17:56:47.156Z,6.20
2019-02-16T17:59:22.145Z,6.20
2019-02-16T18:02:07.405Z,6.20
2019-02-16T18:04:48.428Z,6.20
2019-02-16T18:07:26.569Z,6.10
2019-02-16T18:09:55.734Z,6.10
2019-02-16T18:12:41.262Z,6.00
2019-02-16T18:15:16.351Z,6.00
2019-02-16T18:17:45.591Z,5.90
2019-02-16T18:20:14.763Z,5.90
2019-02-16T18:22:46.988Z,5.80
2019-02-16T18:25:16.214Z,5.80
2019-02-16T18:28:01.980Z,5.80
2019-02-16T18:30:44.455Z,5.80
2019-02-16T18:33:30.494Z,6.10
2019-02-16T18:36:08.969Z,6.20
2019-02-16T18:38:38.028Z,6.40
2019-02-16T18:41:13.071Z,6.60
2019-02-16T18:43:59.884Z,6.80
2019-02-16T18:46:38.083Z,7.00
2019-02-16T18:49:22.308Z,7.00
2019-02-16T18:51:57.181Z,7.20
2019-02-16T18:54:29.045Z,7.30
2019-02-16T18:57:14.553Z,7.30
2019-02-16T18:59:51.122Z,7.50
2019-02-16T19:02:20.227Z,7.50
2019-02-16T19:04:51.799Z,7.40
2019-02-16T19:07:23.615Z,7.50
2019-02-16T19:10:04.647Z,7.50
2019-02-16T19:12:36.520Z,7.60
2019-02-16T19:15:13.541Z,7.50
2019-02-16T19:17:42.588Z,7.60
2019-02-16T19:20:14.970Z,7.60
2019-02-16T19:22:46.911Z,7.50
2019-02-16T19:25:30.547Z,7.50
2019-02-16T19:28:02.345Z,7.40
2019-02-16T19:30:37.189Z,7.40
2019-02-16T19:33:08.875Z,7.40
2019-02-16T19:35:46.950Z,7.40
2019-02-16T19:38:32.598Z,7.50
2019-02-16T19:41:13.851Z,7.50
2019-02-16T19:43:46.331Z,7.60
2019-02-16T19:46:18.205Z,7.60
2019-02-16T19:49:05.319Z,7.70
2019-02-16T19:51:46.318Z,7.90
2019-02-16T19:54:32.694Z,8.10
2019-02-16T19:57:04.733Z,8.20
2019-02-16T19:59:36.590Z,8.10
2019-02-16T20:02:08.688Z,8.10
2019-02-16T20:04:40.528Z,8.20
2019-02-16T20:07:26.484Z,8.10
2019-02-16T20:09:55.706Z,8.10
2019-02-16T20:12:30.878Z,8.30
2019-02-16T20:15:02.830Z,8.20
2019-02-16T20:17:34.845Z,8.10
2019-02-16T20:20:07.266Z,8.30
2019-02-16T20:22:41.183Z,8.30
2019-02-16T20:25:12.875Z,8.30
2019-02-16T20:27:42.312Z,8.30
2019-02-16T20:33:10.602Z,8.50
2019-02-16T20:35:49.322Z,8.50
2019-02-16T20:38:21.900Z,8.40
2019-02-16T20:40:57.340Z,8.60
2019-02-16T20:43:30.274Z,8.70
2019-02-16T20:46:17.854Z,8.70
2019-02-16T20:48:54.124Z,8.60
2019-02-16T20:51:24.235Z,8.20
2019-02-16T20:54:12.377Z,8.40
2019-02-16T20:56:45.776Z,8.40
2019-02-16T20:59:32.073Z,8.50
2019-02-16T21:02:19.189Z,8.50
2019-02-16T21:05:05.694Z,8.60
2019-02-16T21:07:36.015Z,8.70
2019-02-16T21:13:15.369Z,8.60
2019-02-16T21:15:51.223Z,8.70
2019-02-16T21:18:39.098Z,8.60
2019-02-16T21:21:11.531Z,8.50
2019-02-16T21:23:41.035Z,8.50
2019-02-16T21:26:11.155Z,8.50
2019-02-16T21:28:50.285Z,8.50
2019-02-16T21:31:20.609Z,8.40
2019-02-16T21:33:56.289Z,8.40
2019-02-16T21:36:30.165Z,8.40
2019-02-16T21:39:12.063Z,8.30
2019-02-16T21:41:59.177Z,8.30
2019-02-16T21:44:29.346Z,8.30
2019-02-16T21:47:02.708Z,8.20
2019-02-16T21:49:32.671Z,8.30
2019-02-16T21:52:05.185Z,8.30
2019-02-16T21:54:35.507Z,8.20
2019-02-16T21:57:14.637Z,8.10
2019-02-16T22:00:00.945Z,8.00
2019-02-16T22:02:36.583Z,8.00
2019-02-16T22:05:23.291Z,7.90
2019-02-16T22:08:07.952Z,7.90
2019-02-16T22:10:44.029Z,7.80
2019-02-16T22:13:12.079Z,7.80
2019-02-16T22:15:40.561Z,7.80
2019-02-16T22:18:08.632Z,7.70
2019-02-16T22:20:37.119Z,7.70
2019-02-16T22:23:05.593Z,7.60
2019-02-16T22:25:34.073Z,7.50
2019-02-16T22:28:05.830Z,6.90
2019-02-16T22:30:34.311Z,7.00
2019-02-16T22:33:04.019Z,7.20
2019-02-16T22:35:32.915Z,7.20
2019-02-16T22:38:03.849Z,7.10
2019-02-16T22:40:33.815Z,7.00
2019-02-16T22:43:02.039Z,6.90
2019-02-16T22:45:30.518Z,6.90
2019-02-16T22:47:58.794Z,6.90
2019-02-16T22:50:27.070Z,6.80
2019-02-16T22:52:55.346Z,6.70
2019-02-16T22:55:26.489Z,6.70
2019-02-16T22:57:55.019Z,6.10
2019-02-16T23:00:27.756Z,6.60
2019-02-16T23:02:56.232Z,6.60
2019-02-16T23:05:23.895Z,6.60
2019-02-16T23:07:52.374Z,6.60
2019-02-16T23:10:20.854Z,6.60
2019-02-16T23:12:49.746Z,6.60
2019-02-16T23:15:18.020Z,6.60
2019-02-16T23:17:46.295Z,6.60
2019-02-16T23:20:14.571Z,6.70
2019-02-16T23:22:43.050Z,6.80
2019-02-16T23:25:11.372Z,6.80
2019-02-16T23:27:39.808Z,6.80
2019-02-16T23:30:09.928Z,6.70
2019-02-16T23:32:37.792Z,6.50
2019-02-16T23:35:07.130Z,6.60
2019-02-16T23:37:34.958Z,6.60
2019-02-16T23:40:03.849Z,6.60
2019-02-16T23:42:34.583Z,6.60
2019-02-16T23:45:04.216Z,6.60
2019-02-16T23:47:31.953Z,6.60
2019-02-16T23:50:00.467Z,6.50
2019-02-16T23:52:28.709Z,6.50
2019-02-16T23:54:56.984Z,6.60
2019-02-16T23:57:25.055Z,6.50
2019-02-16T23:59:53.333Z,6.40
